Pucha Pucha, Argentina
Current Conditions -  °F | °C
As of 7:00 AM on Tuesday 27 Jan 2015 (Local Time) from SCAT Reporting Station
NA  
Wind Chill: 18°   Ceiling: NA
Heat Index: 18°   Visibility: 6mi
Dew Point: 14°   Wind: 10mph
Humidity: 77%   Direction: 330°NNW
Pressure: 29.94"   Gusts: NA
Location:  28.34°S, 69.22°W
Report Text: SCAT 271000Z AUTO 33009KT 9999 // ///023 18/14 Q1014
Loading
Personal Weather Stations






























Interactive Weather Map New forecast layout! Learn more

10-Day Weather Forecast

Advertisements
Track Severe Weather on mobile